Time;durP1;ratioP1;P1;durP2;ratioP2;P2;SDS_P1;SDS_P2;PMS_P1;PMS_P2;Temp;Humidity;BMP_temperature;BMP_pressure;BME280_temperature;BME280_humidity;BME280_pressure;Samples;Min_cycle;Max_cycle;Signal;HPM_P1;HPM_P2
2023/08/16 00:01:36;;;;;;;12.70;6.97;;;23.00;69.80;;;;;;4963100;28;20035;-90
2023/08/16 00:04:04;;;;;;;10.25;6.57;;;23.00;69.70;;;;;;4943452;29;20402;-90
2023/08/16 00:06:31;;;;;;;9.73;6.57;;;23.00;69.80;;;;;;4941513;29;20512;-90
2023/08/16 00:08:58;;;;;;;12.35;6.60;;;23.10;69.60;;;;;;4934091;29;20508;-91
2023/08/16 00:11:27;;;;;;;10.32;6.65;;;23.10;69.60;;;;;;4932765;29;20071;-90
2023/08/16 00:13:54;;;;;;;11.53;7.27;;;23.00;69.60;;;;;;4934785;29;20394;-90
2023/08/16 00:16:21;;;;;;;10.32;6.85;;;23.10;69.70;;;;;;4934241;29;20075;-91
2023/08/16 00:18:48;;;;;;;13.35;7.28;;;23.10;70.00;;;;;;4933186;29;20047;-91
2023/08/16 00:21:15;;;;;;;11.13;6.90;;;23.10;70.10;;;;;;4945082;29;20048;-91
2023/08/16 00:23:42;;;;;;;10.23;6.72;;;23.10;70.10;;;;;;4943630;29;20529;-90
2023/08/16 00:26:09;;;;;;;11.07;7.47;;;23.10;70.20;;;;;;4908431;29;20487;-90
2023/08/16 00:28:36;;;;;;;12.57;7.38;;;23.00;70.40;;;;;;4931803;29;20115;-90
2023/08/16 00:31:04;;;;;;;13.90;7.63;;;23.00;70.40;;;;;;4927175;29;20050;-91
2023/08/16 00:33:31;;;;;;;11.40;7.75;;;23.00;70.60;;;;;;4931125;29;20054;-89
2023/08/16 00:35:58;;;;;;;11.70;7.18;;;23.00;70.70;;;;;;4924534;29;20051;-89
2023/08/16 00:38:25;;;;;;;12.57;7.40;;;23.00;70.60;;;;;;4928043;29;20062;-90
2023/08/16 00:40:52;;;;;;;11.45;7.40;;;23.00;70.60;;;;;;4923693;29;20040;-90
2023/08/16 00:43:20;;;;;;;10.57;6.80;;;23.00;70.30;;;;;;4930540;29;20055;-90
2023/08/16 00:45:48;;;;;;;12.60;6.60;;;23.00;70.30;;;;;;4930220;29;20386;-90
2023/08/16 00:48:17;;;;;;;9.77;6.53;;;23.00;70.40;;;;;;4927879;29;20421;-90
2023/08/16 00:50:47;;;;;;;14.33;7.00;;;22.90;70.40;;;;;;4940871;29;20490;-90
2023/08/16 00:53:18;;;;;;;12.55;6.50;;;22.80;70.60;;;;;;4930311;29;20086;-90
2023/08/16 00:55:45;;;;;;;10.27;6.55;;;22.80;70.70;;;;;;4933012;29;20044;-90
2023/08/16 00:58:16;;;;;;;11.05;6.50;;;22.80;70.70;;;;;;4907667;29;20081;-91
2023/08/16 01:00:43;;;;;;;11.30;6.57;;;22.80;70.40;;;;;;4931975;29;20052;-90
2023/08/16 01:03:11;;;;;;;9.87;6.50;;;22.80;70.30;;;;;;4924521;29;20095;-90
2023/08/16 01:05:38;;;;;;;10.77;6.43;;;22.70;70.60;;;;;;4952996;28;20162;-91
2023/08/16 01:08:05;;;;;;;9.88;5.82;;;22.70;70.60;;;;;;4965019;28;20039;-90
2023/08/16 01:11:18;;;;;;;10.88;6.10;;;22.60;70.70;;;;;;4952467;28;20051;-90
2023/08/16 01:14:09;;;;;;;10.60;5.93;;;22.60;70.90;;;;;;4967938;28;20133;-90
2023/08/16 01:16:39;;;;;;;12.87;6.40;;;22.60;71.20;;;;;;4933775;28;20133;-90
2023/08/16 01:19:10;;;;;;;10.00;6.32;;;22.40;71.50;;;;;;4951347;28;20043;-90
2023/08/16 01:21:51;;;;;;;11.15;6.43;;;22.40;71.60;;;;;;4951486;28;20054;-89
2023/08/16 01:24:34;;;;;;;11.27;6.90;;;22.40;71.70;;;;;;4956643;28;20039;-91
2023/08/16 01:27:02;;;;;;;10.30;6.82;;;22.30;71.90;;;;;;4958058;28;20066;-90
2023/08/16 01:29:30;;;;;;;12.20;6.90;;;22.30;72.00;;;;;;4958379;28;20039;-90
2023/08/16 01:31:58;;;;;;;11.50;6.93;;;22.20;72.20;;;;;;4948792;28;20046;-90
2023/08/16 01:34:25;;;;;;;12.30;7.05;;;22.10;72.50;;;;;;4954110;28;20134;-91
2023/08/16 01:36:52;;;;;;;10.40;6.97;;;22.10;72.70;;;;;;4968280;28;20042;-90
2023/08/16 01:39:19;;;;;;;10.80;6.80;;;22.00;72.70;;;;;;4948681;28;20061;-90
2023/08/16 01:41:52;;;;;;;12.73;6.97;;;22.00;72.90;;;;;;4969007;28;20072;-90
2023/08/16 01:44:21;;;;;;;11.30;7.10;;;22.00;72.80;;;;;;4959134;28;20051;-90
2023/08/16 01:46:50;;;;;;;12.02;7.68;;;22.00;73.00;;;;;;4950897;28;20049;-89
2023/08/16 01:49:18;;;;;;;11.57;7.07;;;22.00;73.10;;;;;;4951811;28;20387;-90
2023/08/16 01:51:45;;;;;;;12.55;6.65;;;22.00;73.00;;;;;;4950285;28;20035;-91
2023/08/16 01:54:12;;;;;;;11.93;6.30;;;22.00;72.90;;;;;;4952597;28;20054;-90
2023/08/16 01:56:40;;;;;;;10.75;7.15;;;22.00;72.80;;;;;;4949966;28;20046;-90
2023/08/16 01:59:07;;;;;;;11.10;7.10;;;22.00;72.60;;;;;;4957500;28;20082;-90
2023/08/16 02:01:35;;;;;;;11.98;7.13;;;22.10;72.30;;;;;;4954524;28;20054;-90
2023/08/16 02:04:02;;;;;;;10.85;7.00;;;22.10;72.20;;;;;;4958611;28;20050;-90
2023/08/16 02:06:29;;;;;;;11.93;6.90;;;22.10;72.20;;;;;;4959306;28;20070;-90
2023/08/16 02:08:58;;;;;;;9.82;6.43;;;22.10;72.10;;;;;;4958084;28;20130;-89
2023/08/16 02:11:25;;;;;;;11.38;6.40;;;22.10;71.90;;;;;;4949456;28;20050;-90
2023/08/16 02:13:52;;;;;;;9.70;6.30;;;22.10;72.00;;;;;;4955228;28;20046;-89
2023/08/16 02:16:26;;;;;;;10.25;6.05;;;22.10;71.90;;;;;;4957920;28;20441;-90
2023/08/16 02:18:53;;;;;;;9.63;6.20;;;22.00;71.80;;;;;;4953690;28;20053;-90
2023/08/16 02:21:20;;;;;;;12.05;6.28;;;22.00;71.80;;;;;;4950951;28;20493;-91
2023/08/16 02:23:47;;;;;;;9.57;6.10;;;22.10;71.70;;;;;;4956178;28;20867;-91
2023/08/16 02:26:14;;;;;;;10.52;6.00;;;22.10;71.50;;;;;;4949661;28;20464;-90
2023/08/16 02:28:43;;;;;;;10.38;6.18;;;22.10;71.40;;;;;;4957348;28;20174;-91
2023/08/16 02:31:10;;;;;;;8.97;5.90;;;22.10;71.50;;;;;;4950345;28;20168;-90
2023/08/16 02:33:37;;;;;;;12.68;6.70;;;22.10;71.50;;;;;;4967408;28;20050;-90
2023/08/16 02:36:04;;;;;;;8.90;5.47;;;22.10;71.50;;;;;;4952820;28;20057;-91
2023/08/16 02:38:31;;;;;;;10.73;6.07;;;22.10;71.70;;;;;;4953011;28;20062;-90
2023/08/16 02:41:00;;;;;;;10.65;6.00;;;22.10;71.70;;;;;;4950854;28;20057;-90
2023/08/16 02:43:27;;;;;;;10.03;5.70;;;22.00;71.80;;;;;;4950608;28;20625;-91
2023/08/16 02:45:54;;;;;;;10.93;6.70;;;22.00;71.90;;;;;;4947304;28;20061;-90
2023/08/16 02:48:22;;;;;;;10.80;6.40;;;22.00;72.00;;;;;;4952320;28;20034;-89
2023/08/16 02:50:49;;;;;;;12.40;6.50;;;22.00;71.90;;;;;;4955943;28;20077;-89
2023/08/16 02:53:17;;;;;;;11.18;6.15;;;22.00;71.90;;;;;;4958255;28;20046;-90
2023/08/16 02:55:44;;;;;;;11.53;5.97;;;21.90;72.00;;;;;;4950134;28;20054;-89
2023/08/16 02:58:12;;;;;;;10.88;6.13;;;22.00;72.10;;;;;;4953278;28;20046;-90
2023/08/16 03:00:39;;;;;;;9.68;6.10;;;22.00;72.00;;;;;;4949745;28;20055;-89
2023/08/16 03:03:06;;;;;;;12.88;5.82;;;22.00;71.80;;;;;;4965965;28;20058;-89
2023/08/16 03:05:33;;;;;;;9.32;5.93;;;22.00;71.60;;;;;;4955622;28;20511;-89
2023/08/16 03:08:01;;;;;;;9.13;5.30;;;21.90;71.90;;;;;;4955443;28;20485;-89
2023/08/16 03:10:28;;;;;;;9.30;5.88;;;21.80;72.00;;;;;;4950709;28;20501;-89
2023/08/16 03:12:56;;;;;;;9.55;6.00;;;21.80;71.90;;;;;;4953709;28;20445;-89
2023/08/16 03:15:23;;;;;;;10.48;6.35;;;21.80;71.90;;;;;;4957907;28;20077;-89
2023/08/16 03:17:50;;;;;;;9.50;5.93;;;21.80;71.80;;;;;;4967342;28;20039;-89
2023/08/16 03:20:17;;;;;;;11.17;5.80;;;21.80;71.80;;;;;;4950286;28;20074;-89
2023/08/16 03:22:44;;;;;;;9.90;5.28;;;21.80;72.00;;;;;;4950176;28;20054;-89
2023/08/16 03:25:14;;;;;;;10.43;6.18;;;21.70;72.00;;;;;;4953433;28;20042;-89
2023/08/16 03:27:41;;;;;;;9.45;5.85;;;21.70;72.30;;;;;;4946898;28;20086;-89
2023/08/16 03:30:09;;;;;;;10.77;6.28;;;21.60;72.40;;;;;;4954380;28;20043;-89
2023/08/16 03:32:38;;;;;;;14.07;6.00;;;21.60;72.60;;;;;;4966657;28;20081;-89
2023/08/16 03:35:05;;;;;;;10.05;5.80;;;21.50;72.80;;;;;;4956881;28;20043;-90
2023/08/16 03:37:32;;;;;;;9.57;5.93;;;21.50;73.10;;;;;;4963798;28;20125;-89
2023/08/16 03:39:59;;;;;;;9.15;6.03;;;21.40;73.30;;;;;;4949337;28;20055;-89
2023/08/16 03:42:26;;;;;;;10.18;5.68;;;21.30;73.70;;;;;;4951062;28;20050;-89
2023/08/16 03:44:56;;;;;;;12.13;6.83;;;21.20;74.00;;;;;;4955785;28;20035;-89
2023/08/16 03:47:23;;;;;;;11.00;6.25;;;21.20;74.20;;;;;;4962101;28;20125;-89
2023/08/16 03:49:53;;;;;;;12.05;6.28;;;21.10;74.30;;;;;;4955314;28;20038;-89
2023/08/16 03:52:20;;;;;;;10.05;6.10;;;21.10;74.40;;;;;;4955010;28;20050;-90
2023/08/16 03:54:50;;;;;;;10.00;6.30;;;21.10;74.70;;;;;;4949341;28;20129;-89
2023/08/16 03:57:18;;;;;;;11.80;7.40;;;21.10;74.90;;;;;;4949971;28;20523;-89
2023/08/16 03:59:45;;;;;;;9.85;6.35;;;21.10;75.00;;;;;;4966509;28;20057;-89
2023/08/16 04:02:12;;;;;;;10.38;6.63;;;21.10;74.80;;;;;;4948310;28;20051;-89
2023/08/16 04:04:39;;;;;;;12.18;7.30;;;21.10;74.70;;;;;;4951192;28;20109;-89
2023/08/16 04:07:06;;;;;;;12.70;7.28;;;21.10;74.60;;;;;;4949080;28;20050;-89
2023/08/16 04:09:34;;;;;;;12.40;6.97;;;21.10;74.70;;;;;;4965837;28;20416;-86
2023/08/16 04:12:02;;;;;;;13.07;7.43;;;21.10;74.90;;;;;;4950490;28;20045;-86
2023/08/16 04:14:30;;;;;;;11.13;7.15;;;21.00;75.10;;;;;;4946684;28;20097;-86
2023/08/16 04:16:57;;;;;;;11.88;6.68;;;21.00;75.30;;;;;;4949385;28;20039;-86
2023/08/16 04:19:24;;;;;;;12.23;7.30;;;21.00;75.50;;;;;;4965851;28;20407;-86
2023/08/16 04:21:51;;;;;;;11.37;6.77;;;21.00;75.30;;;;;;4948130;28;20042;-86
2023/08/16 04:24:18;;;;;;;10.10;6.65;;;21.00;75.30;;;;;;4949849;28;20656;-85
2023/08/16 04:26:45;;;;;;;11.88;6.78;;;21.00;75.30;;;;;;4947221;28;20119;-86
2023/08/16 04:29:12;;;;;;;11.48;7.55;;;21.10;75.20;;;;;;4950273;28;20114;-85
2023/08/16 04:31:39;;;;;;;12.43;7.30;;;21.00;75.30;;;;;;4950544;28;20046;-86
2023/08/16 04:34:07;;;;;;;11.17;7.20;;;21.00;75.30;;;;;;4950057;28;20050;-87
2023/08/16 04:36:34;;;;;;;14.45;7.70;;;21.10;75.30;;;;;;4947695;28;20047;-87
2023/08/16 04:39:01;;;;;;;11.68;7.05;;;21.00;75.30;;;;;;4952360;28;20043;-86
2023/08/16 04:41:28;;;;;;;12.73;6.80;;;21.10;75.20;;;;;;4952642;28;20066;-86
2023/08/16 04:43:56;;;;;;;9.85;6.65;;;21.10;75.20;;;;;;4950033;28;20138;-86
2023/08/16 04:46:25;;;;;;;11.23;6.53;;;21.10;75.10;;;;;;4958652;28;20045;-86
2023/08/16 04:48:53;;;;;;;13.15;6.40;;;21.10;75.20;;;;;;4953877;28;20051;-84
2023/08/16 04:51:20;;;;;;;10.88;6.50;;;21.10;75.00;;;;;;4951403;28;20110;-87
2023/08/16 04:53:49;;;;;;;11.82;6.03;;;21.10;74.80;;;;;;4952003;28;20046;-87
2023/08/16 04:56:17;;;;;;;11.23;6.72;;;21.10;75.00;;;;;;4950312;28;20528;-87
2023/08/16 04:58:44;;;;;;;10.13;6.73;;;21.20;75.00;;;;;;4955536;28;20067;-87
2023/08/16 05:01:11;;;;;;;11.07;6.40;;;21.20;74.90;;;;;;4957506;28;20703;-87
2023/08/16 05:03:39;;;;;;;10.93;6.20;;;21.20;74.60;;;;;;4967439;28;20039;-87
2023/08/16 05:06:07;;;;;;;10.75;6.70;;;21.30;74.50;;;;;;4953463;28;20042;-88
2023/08/16 05:08:34;;;;;;;11.75;6.88;;;21.40;74.70;;;;;;4957969;28;20035;-87
2023/08/16 05:11:02;;;;;;;10.87;6.43;;;21.50;74.50;;;;;;4951902;28;20400;-87
2023/08/16 05:13:29;;;;;;;11.70;6.50;;;21.50;74.20;;;;;;4953916;28;20047;-87
2023/08/16 05:15:56;;;;;;;11.15;6.65;;;21.50;74.10;;;;;;4952924;28;20046;-87
2023/08/16 05:18:24;;;;;;;11.00;6.25;;;21.60;74.00;;;;;;4948489;28;20129;-85
2023/08/16 05:20:54;;;;;;;12.73;6.78;;;21.60;73.70;;;;;;4955446;28;20046;-86
2023/08/16 05:23:21;;;;;;;14.10;7.43;;;21.60;73.70;;;;;;4970105;28;20047;-86
2023/08/16 05:25:48;;;;;;;10.93;7.10;;;21.60;74.00;;;;;;4957822;28;20039;-86
2023/08/16 05:28:15;;;;;;;12.10;7.07;;;21.60;73.90;;;;;;4956921;28;20045;-86
2023/08/16 05:30:42;;;;;;;15.63;7.78;;;21.70;73.90;;;;;;4969536;28;20043;-86
2023/08/16 05:33:10;;;;;;;11.77;7.35;;;21.70;73.80;;;;;;4970052;28;20498;-86
2023/08/16 05:35:37;;;;;;;11.37;6.87;;;21.90;73.50;;;;;;4958974;28;20051;-86
2023/08/16 05:38:05;;;;;;;11.48;7.05;;;22.10;73.10;;;;;;4968425;28;20077;-86
2023/08/16 05:40:32;;;;;;;11.88;6.68;;;22.20;72.70;;;;;;4949994;28;20047;-89
2023/08/16 05:42:59;;;;;;;11.45;6.40;;;22.30;72.00;;;;;;4957977;28;20062;-88
2023/08/16 05:45:28;;;;;;;9.60;6.18;;;22.50;72.20;;;;;;4950759;28;20045;-89
2023/08/16 05:47:55;;;;;;;11.10;6.40;;;22.60;72.10;;;;;;4959017;28;20596;-91
2023/08/16 05:50:23;;;;;;;11.40;6.65;;;22.70;71.10;;;;;;4959033;28;20413;-90
2023/08/16 05:52:50;;;;;;;10.32;6.82;;;22.80;71.30;;;;;;4965545;28;20053;-90
2023/08/16 05:55:17;;;;;;;13.98;6.80;;;22.90;71.40;;;;;;4966021;28;20046;-90
2023/08/16 05:57:44;;;;;;;12.90;6.85;;;23.00;70.90;;;;;;4957637;28;20134;-90
2023/08/16 06:00:11;;;;;;;11.10;6.23;;;23.10;70.50;;;;;;4956071;28;20031;-90
2023/08/16 06:02:38;;;;;;;12.50;7.15;;;23.20;70.50;;;;;;4957855;28;20039;-90
2023/08/16 06:05:06;;;;;;;10.85;6.75;;;23.40;70.40;;;;;;4951014;28;20424;-91
2023/08/16 06:07:33;;;;;;;11.10;6.65;;;23.50;69.40;;;;;;4968622;28;20106;-91
2023/08/16 06:10:00;;;;;;;10.18;6.20;;;23.60;68.90;;;;;;4948016;28;20071;-87
2023/08/16 06:12:27;;;;;;;14.13;6.50;;;23.70;69.30;;;;;;4951010;28;20385;-86
2023/08/16 06:14:54;;;;;;;10.10;6.40;;;23.80;68.90;;;;;;4949674;28;20039;-87
2023/08/16 06:17:21;;;;;;;10.02;6.25;;;23.90;69.10;;;;;;4951194;28;20054;-87
2023/08/16 06:19:49;;;;;;;10.38;6.18;;;24.00;69.10;;;;;;4950834;28;20053;-87
2023/08/16 06:22:16;;;;;;;11.02;6.30;;;24.10;69.30;;;;;;4955298;28;20046;-87
2023/08/16 06:24:43;;;;;;;10.33;6.50;;;24.20;68.60;;;;;;4950840;28;20382;-87
2023/08/16 06:27:10;;;;;;;9.88;6.15;;;24.40;68.90;;;;;;4951403;28;20548;-87
2023/08/16 06:29:37;;;;;;;12.50;6.57;;;24.50;68.20;;;;;;4950750;28;20043;-87
2023/08/16 06:32:06;;;;;;;11.75;6.35;;;24.60;66.90;;;;;;4964795;28;20078;-87
2023/08/16 06:34:34;;;;;;;10.35;6.15;;;24.60;67.40;;;;;;4965751;28;20061;-86
2023/08/16 06:37:01;;;;;;;11.67;6.37;;;24.70;67.80;;;;;;4955426;28;20046;-87
2023/08/16 06:39:28;;;;;;;12.13;6.75;;;24.80;67.10;;;;;;4962752;28;20560;-87
2023/08/16 06:41:55;;;;;;;12.48;7.50;;;25.00;67.20;;;;;;4948219;28;20059;-87
2023/08/16 06:44:26;;;;;;;13.90;6.95;;;25.00;66.40;;;;;;4952099;28;20178;-87
2023/08/16 06:46:53;;;;;;;10.50;6.40;;;25.10;66.90;;;;;;4951560;28;20470;-87
2023/08/16 06:49:21;;;;;;;12.23;6.57;;;25.10;66.40;;;;;;4953184;28;20043;-87
2023/08/16 06:51:48;;;;;;;10.82;6.63;;;25.30;66.80;;;;;;4955391;28;20135;-87
2023/08/16 06:54:15;;;;;;;10.10;6.55;;;25.40;66.50;;;;;;4946224;28;20132;-87
2023/08/16 06:56:42;;;;;;;11.50;6.40;;;25.50;66.90;;;;;;4955466;28;20042;-87
2023/08/16 06:59:09;;;;;;;11.30;6.80;;;25.60;66.60;;;;;;4952646;28;20090;-87
2023/08/16 07:01:36;;;;;;;12.53;6.40;;;25.70;65.50;;;;;;4972791;28;20467;-87
2023/08/16 07:04:04;;;;;;;10.70;6.85;;;25.90;66.00;;;;;;4947164;28;20047;-87
2023/08/16 07:06:31;;;;;;;12.35;6.68;;;26.00;65.10;;;;;;4965933;28;20133;-87
2023/08/16 07:08:59;;;;;;;9.40;6.25;;;26.10;65.70;;;;;;4953036;28;20485;-87
2023/08/16 07:11:26;;;;;;;12.20;6.65;;;26.20;64.70;;;;;;4943365;28;20043;-87
2023/08/16 07:13:53;;;;;;;10.83;6.07;;;26.40;65.20;;;;;;4954364;28;20038;-87
2023/08/16 07:16:20;;;;;;;12.07;5.90;;;26.60;65.20;;;;;;4961303;28;20046;-87
2023/08/16 07:18:47;;;;;;;8.55;5.72;;;26.70;65.00;;;;;;4947945;28;20070;-87
2023/08/16 07:21:17;;;;;;;9.85;6.20;;;26.70;63.30;;;;;;4964258;28;20118;-87
2023/08/16 07:23:44;;;;;;;12.25;5.97;;;26.90;63.50;;;;;;4952013;28;20039;-87
2023/08/16 07:26:11;;;;;;;9.97;5.90;;;26.90;63.10;;;;;;4947423;28;20039;-87
2023/08/16 07:28:38;;;;;;;11.70;6.10;;;26.90;62.60;;;;;;4947064;28;20445;-87
2023/08/16 07:31:05;;;;;;;9.82;6.07;;;27.10;63.60;;;;;;4950541;28;20047;-87
2023/08/16 07:33:34;;;;;;;11.00;5.90;;;27.10;64.50;;;;;;4950735;28;20050;-87
2023/08/16 07:36:02;;;;;;;10.32;5.65;;;27.20;63.20;;;;;;4947105;28;20047;-87
2023/08/16 07:38:32;;;;;;;10.40;5.80;;;27.40;63.80;;;;;;4954172;28;20409;-87
2023/08/16 07:41:01;;;;;;;55.75;8.68;;;27.50;62.10;;;;;;4964233;28;20053;-87
2023/08/16 07:43:29;;;;;;;11.95;5.82;;;27.50;61.60;;;;;;4954472;28;20049;-87
2023/08/16 07:45:56;;;;;;;11.77;5.38;;;27.60;60.50;;;;;;4959464;28;20076;-87
2023/08/16 07:48:23;;;;;;;9.38;5.07;;;27.60;60.40;;;;;;4942792;28;20047;-87
2023/08/16 07:50:53;;;;;;;10.57;5.27;;;27.70;62.00;;;;;;4963844;28;20126;-87
2023/08/16 07:53:22;;;;;;;9.00;5.35;;;27.70;59.90;;;;;;4952760;28;20047;-87
2023/08/16 07:55:49;;;;;;;34.55;7.28;;;27.80;60.70;;;;;;4953480;28;20050;-87
2023/08/16 07:58:16;;;;;;;8.50;5.70;;;27.90;60.20;;;;;;4945095;28;20102;-87
2023/08/16 08:00:46;;;;;;;9.45;5.43;;;28.10;59.80;;;;;;4950341;28;20090;-88
2023/08/16 08:03:13;;;;;;;10.30;5.20;;;28.20;60.60;;;;;;4964185;28;20106;-87
2023/08/16 08:05:40;;;;;;;9.27;4.78;;;28.40;59.10;;;;;;4950084;29;20059;-87
2023/08/16 08:08:08;;;;;;;9.02;5.28;;;28.50;59.60;;;;;;4925145;29;20051;-87
2023/08/16 08:10:35;;;;;;;9.57;5.00;;;28.60;59.00;;;;;;4960583;28;20165;-87
2023/08/16 08:13:03;;;;;;;10.60;4.95;;;28.60;59.30;;;;;;4943513;29;20580;-88
2023/08/16 08:15:30;;;;;;;10.27;5.47;;;28.80;59.30;;;;;;4950084;28;20044;-88
2023/08/16 08:17:57;;;;;;;8.68;5.00;;;28.90;58.30;;;;;;4941979;29;20122;-87
2023/08/16 08:20:24;;;;;;;8.15;5.20;;;29.00;58.10;;;;;;4960975;28;20071;-87
2023/08/16 08:22:51;;;;;;;11.70;5.22;;;29.10;58.30;;;;;;4955609;28;20051;-88
2023/08/16 08:25:18;;;;;;;12.43;5.05;;;29.30;57.80;;;;;;4956195;28;20039;-87
2023/08/16 08:27:45;;;;;;;9.43;4.63;;;29.30;55.80;;;;;;4948552;29;20047;-87
2023/08/16 08:30:14;;;;;;;11.98;4.85;;;29.20;54.80;;;;;;4953691;28;20091;-87
2023/08/16 08:32:41;;;;;;;10.70;4.80;;;29.30;55.20;;;;;;4951924;29;20047;-87
2023/08/16 08:35:10;;;;;;;9.85;4.57;;;29.40;54.90;;;;;;4950767;29;20043;-88
2023/08/16 08:37:37;;;;;;;9.30;4.50;;;29.50;55.00;;;;;;4962918;28;20510;-87
2023/08/16 08:40:05;;;;;;;10.67;4.60;;;29.40;55.10;;;;;;4952541;28;20077;-87
2023/08/16 08:42:32;;;;;;;8.50;4.82;;;29.30;55.70;;;;;;4959414;28;20052;-87
2023/08/16 08:45:01;;;;;;;9.60;5.20;;;29.10;57.80;;;;;;4953527;29;20097;-87
2023/08/16 08:47:30;;;;;;;9.75;5.07;;;29.10;57.70;;;;;;4949124;28;20120;-87
2023/08/16 08:49:59;;;;;;;8.38;4.97;;;29.10;59.40;;;;;;4953463;29;20047;-87
2023/08/16 08:52:27;;;;;;;17.13;5.17;;;29.10;58.30;;;;;;4954287;29;20405;-87
2023/08/16 08:54:54;;;;;;;11.23;4.90;;;29.30;57.60;;;;;;4953878;28;20541;-88
2023/08/16 08:57:22;;;;;;;8.77;5.03;;;29.50;57.10;;;;;;4947926;29;20051;-87
2023/08/16 08:59:50;;;;;;;33.10;6.25;;;29.50;57.30;;;;;;4967040;28;20059;-87
2023/08/16 09:02:17;;;;;;;8.82;5.28;;;29.50;58.00;;;;;;4944319;29;20564;-87
2023/08/16 09:04:47;;;;;;;7.67;4.57;;;29.70;56.90;;;;;;4966788;28;20062;-87
2023/08/16 09:07:17;;;;;;;9.18;4.30;;;29.90;53.30;;;;;;4952388;28;20130;-87
2023/08/16 09:09:48;;;;;;;7.72;4.70;;;29.90;52.60;;;;;;4960531;28;20039;-87
2023/08/16 09:12:18;;;;;;;9.27;4.95;;;30.00;53.50;;;;;;4955219;29;20047;-88
2023/08/16 09:14:46;;;;;;;9.07;4.53;;;30.00;54.20;;;;;;4951980;28;20057;-87
2023/08/16 09:17:13;;;;;;;11.33;5.23;;;30.10;53.50;;;;;;4962036;28;20046;-87
2023/08/16 09:19:46;;;;;;;7.75;4.80;;;30.20;55.30;;;;;;4947662;29;20044;-87
2023/08/16 09:22:14;;;;;;;9.02;4.93;;;30.10;54.40;;;;;;4952071;28;20133;-87
2023/08/16 09:24:44;;;;;;;9.88;4.80;;;30.10;54.60;;;;;;4943934;29;20047;-87
2023/08/16 09:27:11;;;;;;;8.57;4.80;;;30.10;53.40;;;;;;4962579;28;20086;-87
2023/08/16 09:29:39;;;;;;;9.73;5.23;;;30.20;54.00;;;;;;4964386;28;20047;-87
2023/08/16 09:32:08;;;;;;;9.40;4.63;;;30.30;54.10;;;;;;4949236;29;20457;-87
2023/08/16 09:34:44;;;;;;;9.48;5.07;;;30.50;55.10;;;;;;4953045;29;20051;-87
2023/08/16 09:37:15;;;;;;;8.02;4.55;;;30.70;54.20;;;;;;4966431;28;20043;-87
2023/08/16 09:39:42;;;;;;;8.02;4.82;;;31.00;52.00;;;;;;4950522;29;20066;-87
2023/08/16 09:42:10;;;;;;;9.27;4.53;;;31.00;50.70;;;;;;4952728;28;20054;-87
2023/08/16 09:44:40;;;;;;;10.90;4.78;;;31.00;50.90;;;;;;4951994;29;20109;-87
2023/08/16 09:47:14;;;;;;;8.40;4.57;;;31.10;49.40;;;;;;4942517;29;20047;-87
2023/08/16 09:54:14;;;;;;;8.95;4.45;;;31.00;50.70;;;;;;4952816;28;20038;-88
2023/08/16 09:56:43;;;;;;;8.87;4.73;;;31.10;51.70;;;;;;4951284;29;20609;-88
2023/08/16 09:59:33;;;;;;;8.98;4.18;;;31.30;50.30;;;;;;4960317;28;20134;-88
2023/08/16 10:02:08;;;;;;;6.75;3.75;;;31.50;46.90;;;;;;4966465;28;20055;-89
2023/08/16 10:04:40;;;;;;;7.72;4.28;;;31.60;45.90;;;;;;4952629;29;20063;-89
2023/08/16 10:07:11;;;;;;;6.78;4.20;;;31.80;48.60;;;;;;4945978;29;20111;-88
2023/08/16 10:09:41;;;;;;;7.83;3.80;;;31.70;47.40;;;;;;4962415;28;20051;-89
2023/08/16 10:12:10;;;;;;;7.28;4.25;;;31.70;49.50;;;;;;4955147;29;20032;-89
2023/08/16 10:14:38;;;;;;;9.30;3.88;;;31.80;48.20;;;;;;4946541;29;20079;-89
2023/08/16 10:17:07;;;;;;;8.35;3.88;;;32.00;46.80;;;;;;4946497;29;20054;-89
2023/08/16 10:19:38;;;;;;;8.45;4.32;;;32.10;47.80;;;;;;4934200;29;20564;-90
2023/08/16 10:22:21;;;;;;;7.90;3.93;;;32.10;45.30;;;;;;4945405;28;20071;-89
2023/08/16 10:25:10;;;;;;;8.02;3.78;;;32.00;46.50;;;;;;4964317;28;20421;-88
2023/08/16 10:27:41;;;;;;;10.00;4.18;;;31.70;46.40;;;;;;4953761;28;20416;-89
2023/08/16 10:30:12;;;;;;;7.97;3.90;;;31.60;48.00;;;;;;4959463;28;20035;-89
2023/08/16 10:32:43;;;;;;;9.60;3.90;;;31.90;49.00;;;;;;4936052;29;20048;-88
2023/08/16 10:35:11;;;;;;;8.83;4.20;;;32.00;46.20;;;;;;4952317;29;20138;-88
2023/08/16 10:37:38;;;;;;;6.85;4.15;;;32.10;46.20;;;;;;4954325;29;20119;-88
2023/08/16 10:40:17;;;;;;;9.43;4.40;;;32.20;47.40;;;;;;4954868;28;20523;-88
2023/08/16 10:43:03;;;;;;;7.85;3.90;;;32.20;46.00;;;;;;4969691;28;20062;-88
2023/08/16 10:45:34;;;;;;;8.45;4.40;;;32.20;46.30;;;;;;4951940;29;20147;-88
2023/08/16 10:48:14;;;;;;;7.57;4.00;;;32.20;45.00;;;;;;4960550;28;20126;-89
2023/08/16 10:50:42;;;;;;;9.15;3.85;;;32.20;45.40;;;;;;4953018;28;20071;-88
2023/08/16 10:53:09;;;;;;;8.40;4.22;;;32.20;46.20;;;;;;4964815;28;20035;-89
2023/08/16 10:55:36;;;;;;;7.22;4.22;;;32.30;46.40;;;;;;4950101;29;20050;-89
2023/08/16 10:58:03;;;;;;;7.00;4.07;;;32.20;45.50;;;;;;4967485;28;20525;-89
2023/08/16 11:00:32;;;;;;;7.90;4.27;;;32.20;44.40;;;;;;4949709;29;20043;-89
2023/08/16 11:03:06;;;;;;;7.65;3.85;;;32.20;43.90;;;;;;4963280;28;20075;-89
2023/08/16 11:05:34;;;;;;;7.30;3.75;;;32.40;45.30;;;;;;4960592;28;20555;-88
2023/08/16 11:08:02;;;;;;;8.27;3.97;;;32.50;43.20;;;;;;4947239;29;20130;-88
2023/08/16 11:10:37;;;;;;;8.60;4.40;;;32.60;43.60;;;;;;4958817;28;20040;-88
2023/08/16 11:13:10;;;;;;;7.30;4.47;;;32.60;46.50;;;;;;4963112;28;20048;-89
2023/08/16 11:15:40;;;;;;;16.88;5.03;;;32.60;45.50;;;;;;4954580;29;20055;-88
2023/08/16 11:18:08;;;;;;;9.73;5.13;;;32.60;47.80;;;;;;4951669;29;20054;-89
2023/08/16 11:20:38;;;;;;;11.43;5.03;;;32.30;47.70;;;;;;4962182;28;20066;-88
2023/08/16 11:23:06;;;;;;;8.38;5.07;;;32.10;48.60;;;;;;4945797;29;20050;-88
2023/08/16 11:25:34;;;;;;;10.73;5.60;;;32.10;49.40;;;;;;4943960;28;20080;-88
2023/08/16 11:28:06;;;;;;;9.65;5.00;;;32.10;49.80;;;;;;4948577;29;20039;-89
2023/08/16 11:30:33;;;;;;;10.63;5.10;;;32.20;49.50;;;;;;4953580;29;20101;-89
2023/08/16 11:33:00;;;;;;;9.32;4.75;;;31.90;47.80;;;;;;4929649;29;20040;-89
2023/08/16 11:35:27;;;;;;;8.55;5.38;;;31.70;47.60;;;;;;4958795;28;20558;-89
2023/08/16 11:37:54;;;;;;;7.33;4.73;;;31.60;49.40;;;;;;4968134;28;20047;-88
2023/08/16 11:40:25;;;;;;;9.77;5.00;;;31.30;49.70;;;;;;4943255;29;20059;-88
2023/08/16 11:42:52;;;;;;;7.80;5.10;;;31.20;50.00;;;;;;4960713;28;20099;-89
2023/08/16 11:45:21;;;;;;;8.95;5.18;;;31.40;50.10;;;;;;4941871;29;20054;-88
2023/08/16 11:47:52;;;;;;;10.15;5.60;;;31.50;48.40;;;;;;4947695;29;20048;-88
2023/08/16 11:50:22;;;;;;;17.13;5.47;;;31.60;49.50;;;;;;4933585;29;20519;-89
2023/08/16 11:52:56;;;;;;;7.45;5.30;;;31.70;48.70;;;;;;4952293;28;20047;-89
2023/08/16 11:55:25;;;;;;;10.48;5.60;;;32.00;49.80;;;;;;4945287;29;20095;-89
2023/08/16 11:57:53;;;;;;;9.77;5.10;;;32.30;49.00;;;;;;4958401;28;20503;-88
2023/08/16 12:00:30;;;;;;;8.77;5.05;;;32.60;47.40;;;;;;4958494;28;20139;-88
2023/08/16 12:02:57;;;;;;;99.23;10.57;;;32.70;47.20;;;;;;4944895;28;20062;-88
2023/08/16 12:05:25;;;;;;;10.30;5.00;;;32.70;47.80;;;;;;4951632;29;20051;-88
2023/08/16 12:07:52;;;;;;;10.63;5.47;;;32.40;45.60;;;;;;4943022;29;20039;-88
2023/08/16 12:10:24;;;;;;;8.77;4.90;;;32.20;47.10;;;;;;4949740;29;20138;-88
2023/08/16 12:12:54;;;;;;;9.05;5.07;;;32.10;48.90;;;;;;4963653;28;20131;-88
2023/08/16 12:15:26;;;;;;;9.20;5.13;;;31.90;47.40;;;;;;4944400;28;20059;-88
2023/08/16 12:17:57;;;;;;;10.45;5.57;;;31.60;49.10;;;;;;4942694;29;20497;-88
2023/08/16 12:20:29;;;;;;;7.97;5.60;;;31.60;49.70;;;;;;4961372;28;20134;-88
2023/08/16 12:22:58;;;;;;;10.52;5.80;;;31.80;49.30;;;;;;4947249;28;20501;-88
2023/08/16 12:25:25;;;;;;;10.23;5.80;;;32.00;49.10;;;;;;4961486;28;20048;-88
2023/08/16 12:27:52;;;;;;;11.43;5.07;;;32.20;47.80;;;;;;4943167;29;20043;-88
2023/08/16 12:30:19;;;;;;;12.27;5.90;;;32.20;46.50;;;;;;4948707;29;20103;-88
2023/08/16 12:32:46;;;;;;;10.68;5.68;;;32.30;46.70;;;;;;4946872;28;20051;-88
2023/08/16 12:35:13;;;;;;;10.43;5.38;;;32.50;48.80;;;;;;4952368;29;20107;-89
2023/08/16 12:37:42;;;;;;;9.10;5.40;;;32.60;47.30;;;;;;4954725;28;20228;-88
2023/08/16 12:40:12;;;;;;;10.47;5.67;;;32.80;48.60;;;;;;4960053;28;20142;-88
2023/08/16 12:42:39;;;;;;;9.40;5.55;;;33.00;45.40;;;;;;4940503;29;20139;-88
2023/08/16 12:45:08;;;;;;;8.73;5.50;;;33.00;45.40;;;;;;4929783;29;20039;-89
2023/08/16 12:47:35;;;;;;;9.30;5.93;;;32.90;44.10;;;;;;4948112;28;20453;-88
2023/08/16 12:50:04;;;;;;;8.88;5.55;;;32.90;44.50;;;;;;4961970;28;20071;-88
2023/08/16 12:52:31;;;;;;;8.33;5.60;;;33.00;45.70;;;;;;4943378;28;20397;-89